Snake Valley, Nevada Weather observations

Data are for 10 minute period ending at time listed.
 Day   Time   Solar   Ave.   Ave.  Ave.  Vector  Max.   Baro.   Total    
  of    of     Rad.   Air    Rel.  Wind   Wind   Wind  Press.  Precip.   
Year   Day            Temp.  Hum.  Speed  Dir.   Gust                    
2014   (PST)  Kw/m2    F      %     mph   deg.    mph    mb.     in.     
-------------------------------------------------------------------------
 209   14:00   0.69   80.3    36    7.3   321    16.1   846.7    0.00 
 209   14:10   0.70   81.5    33   13.6   329    20.5   846.6    0.00 
 209   14:20   0.88   81.8    33   12.2   330    16.9   846.5    0.00 
 209   14:30   0.65   81.5    34   12.4   327    18.2   846.4    0.00 
 209   14:40   0.35   78.9    38   10.6   313    16.1   846.4    0.00 
 209   14:50   0.36   79.5    36    7.7   311    14.8   846.3    0.00 
 209   15:00   0.31   79.3    38    4.8   305    11.7   846.2    0.00 
 209   15:10   0.36   80.8    32    4.0   204    12.5   846.1    0.00 
 209   15:20   0.42   82.3    33    3.5   115     6.5   846.0    0.00 
 209   15:30   0.42   81.8    34    4.6   158     9.3   846.0    0.00 
 209   15:40   0.37   81.6    34    5.6   141    13.2   845.9    0.00 
 209   15:50   0.31   80.7    34    7.1   154    12.1   845.8    0.00 
 209   16:00   0.25   80.5    32    5.3   180    11.0   845.8    0.00 
 209   16:10   0.46   81.8    34    3.5    83     7.4   845.7    0.00 
 209   16:20   0.57   82.9    31    4.3    93     8.6   845.6    0.00 
 209   16:30   0.45   84.2    28    2.4    18     3.9   845.6    0.00 
 209   16:40   0.16   82.2    34    2.3    54     4.2   845.6    0.00 
 209   16:50   0.12   80.4    35    4.7    83    10.0   845.6    0.00 
 209   17:00   0.07   78.0    38    6.4    91    11.9   845.5    0.00 
 209   17:10   0.05   76.6    40    5.1   137    11.9   845.3    0.00 
 209   17:20   0.04   77.7    36    8.7   134    15.2   845.1    0.00 
 209   17:30   0.04   77.8    36    6.6    95     9.5   845.0    0.00 
 209   17:40   0.04   75.8    42    5.6    24     8.0   845.0    0.00 
 209   17:50   0.03   75.8    43    5.6   276    15.1   845.2    0.00 
 209   18:00   0.02   73.9    47    9.9   279    14.8   845.1    0.00 
 209   18:10   0.01   72.8    50    9.4   289    15.7   845.1    0.00 
 209   18:20   0.01   73.0    49   11.8   296    15.8   845.2    0.00 
 209   18:30   0.01   72.8    50   10.8   293    16.1   845.2    0.00 
 209   18:40   0.01   72.2    52   10.4   285    14.8   845.2    0.00 
 209   18:50   0.01   71.6    52   12.8   289    17.6   845.2    0.00 
 209   19:00   0.00   71.0    53   13.7   289    20.0   845.4    0.00 
 209   19:10   0.00   70.5    53   14.9   286    22.0   845.5    0.00 
 209   19:20   0.00   70.4    53   15.9   291    21.3   845.6    0.00 
 209   19:30   0.00   69.7    56   16.5   299    22.9   845.7    0.00 
 209   19:40   0.00   68.1    64   15.8   296    21.9   845.8    0.00 
 209   19:50   0.00   67.6    68   14.5   294    20.3   846.0    0.00 
 209   20:00   0.00   67.8    65   12.9   292    18.0   846.1    0.00 
 209   20:10   0.00   67.7    67   12.0   299    18.3   846.2    0.00 
 209   20:20   0.00   67.9    65   10.3   303    14.7   846.4    0.00 
 209   20:30   0.00   68.4    63    9.4   301    14.5   846.6    0.00 
 209   20:40   0.00   68.5    62    7.5   296    10.9   846.6    0.00 
 209   20:50   0.00   68.7    61    6.8   305     9.4   846.7    0.00 
 209   21:00   0.00   68.7    62    5.3   302     8.7   846.7    0.00 
 209   21:10   0.00   67.4    66    4.9   286     6.5   846.6    0.00 
 209   21:20   0.00   67.4    65    4.3   299     6.1   846.6    0.00 
 209   21:30   0.00   67.9    63    3.9   335     5.0   846.6    0.00 
 209   21:40   0.00   68.5    63    3.4   337     4.8   846.6    0.00 
 209   21:50   0.00   67.9    65    4.0   333     4.9   846.5    0.00 
 209   22:00   0.00   67.7    66    3.7   334     5.1   846.4    0.00 
 209   22:10   0.00   67.0    68    3.7   300     5.0   846.5    0.00 
 209   22:20   0.00   68.1    64    3.8     8     6.8   846.7    0.00 
 209   22:30   0.00   66.9    65    4.6    28     6.1   846.8    0.00 
 209   22:40   0.00   67.5    63    4.2    40     5.0   846.8    0.00 
 209   22:50   0.00   67.4    63    3.9    51     5.1   846.8    0.00 
 209   23:00   0.00   66.8    65    5.0    60     9.0   846.8    0.00 
 209   23:10   0.00   68.5    59    7.1    58    10.2   846.8    0.00 
 209   23:20   0.00   68.8    58    6.4    58     9.2   846.8    0.00 
 209   23:30   0.00   68.0    60    7.1    54    10.6   846.7    0.00 
 209   23:40   0.00   67.4    62    6.7    52     9.2   846.7    0.00 
 209   23:50   0.00   66.9    64    3.3    20     9.3   846.6    0.00 
 210    0:00   0.00   65.7    68    3.0   220     6.1   846.6    0.00 
 210    0:10   0.00   65.4    68    3.9   206     8.9   846.6    0.00 
 210    0:20   0.00   67.6    62    2.3    52     4.7   846.6    0.00 
 210    0:30   0.00   66.7    64    1.1   360     2.8   846.6    0.00 
 210    0:40   0.00   66.0    66    1.2   298     2.9   846.6    0.00 
 210    0:50   0.00   64.5    71    3.1   187     4.3   846.6    0.00 
 210    1:00   0.00   63.9    72    1.1   138     2.3   846.6    0.00 
 210    1:10   0.00   63.9    72    3.4   142     4.9   846.6    0.00 
 210    1:20   0.00   63.9    70    3.9   109     5.0   846.6    0.00 
 210    1:30   0.00   63.1    72    3.5   115     5.4   846.5    0.00 
 210    1:40   0.00   62.2    76    3.1   136     3.9   846.6    0.00 
 210    1:50   0.00   62.2    75    1.6   108     2.8   846.6    0.00 
 210    2:00   0.00   62.5    75    1.8   105     3.4   846.7    0.00 
 210    2:10   0.00   63.5    72    3.0   107     3.9   846.8    0.00 
 210    2:20   0.00   63.3    74    1.7    83     2.9   846.8    0.00 
 210    2:30   0.00   63.4    74    1.1   117     1.7   846.9    0.00 
 210    2:40   0.00   63.1    76    2.2   188     2.7   846.9    0.00 
 210    2:50   0.00   62.5    79    1.9   218     2.6   846.9    0.00 
 210    3:00   0.00   62.7    79    1.7   214     2.2   846.9    0.00 
 210    3:10   0.00   62.4    80    1.5   254     1.8   846.9    0.00 
 210    3:20   0.00   63.5    74    1.8   248     2.8   846.9    0.00 
 210    3:30   0.00   63.1    76    2.6   255     3.9   846.9    0.00 
 210    3:40   0.00   62.9    78    2.3   250     3.3   847.0    0.00 
 210    3:50   0.00   62.3    80    2.2   230     2.9   846.9    0.00 
 210    4:00   0.00   63.1    76    2.3   215     2.8   846.9    0.00 
 210    4:10   0.00   63.1    76    1.9   210     2.3   846.8    0.00 
 210    4:20   0.00   63.2    75    2.5   226     3.1   846.7    0.00 
 210    4:30   0.00   63.4    74    2.8   204     3.2   846.7    0.00 
 210    4:40   0.00   64.5    70    2.4   181     2.6   846.7    0.00 
 210    4:50   0.01   63.2    74    1.3   203     2.4   846.7    0.00 
 210    5:00   0.01   63.2    74    2.4   354     3.6   846.7    0.00 
 210    5:10   0.01   62.9    74    2.5    15     3.0   846.8    0.00 
 210    5:20   0.03   63.0    73    1.9   353     2.5   846.9    0.00 
 210    5:30   0.04   63.7    72    1.2   328     2.3   846.9    0.00 
 210    5:40   0.06   63.7    76    0.8   299     1.6   846.9    0.00 
 210    5:50   0.08   64.1    76    1.1   311     1.5   846.9    0.00 
 210    6:00   0.12   65.0    76    0.1   311     1.0   847.0    0.00 
 210    6:10   0.12   66.7    70    0.5   323     1.5   847.0    0.00 
 210    6:20   0.07   66.4    72    0.7   264     1.6   847.0    0.00 
 210    6:30   0.17   66.8    70    0.1   247     1.2   847.1    0.00 
 210    6:40   0.21   68.6    62    1.5    76     2.4   847.1    0.00 
 210    6:50   0.26   68.6    64    2.4    76     3.7   847.2    0.00 
 210    7:00   0.37   69.5    62    2.9    96     4.3   847.2    0.00 
 210    7:10   0.47   70.8    57    3.0    85     4.4   847.0    0.00 
 210    7:20   0.64   72.4    55    3.1    85     5.9   847.0    0.00 
 210    7:30   0.49   73.3    53    2.8    68     6.6   847.0    0.00 
 210    7:40   0.25   72.2    57    3.1    71     5.2   847.1    0.00 
 210    7:50   0.27   71.9    55    1.6    87     3.7   847.1    0.00 
 210    8:00   0.24   72.7    53    1.1   121     2.5   847.2    0.00 
 210    8:10   0.25   72.5    54    1.0   105     2.6   847.1    0.00 
 210    8:20   0.39   72.5    55    1.4    56     2.6   847.0    0.00 
 210    8:30   0.42   74.3    50    0.3   338     1.7   847.0    0.00 
 210    8:40   0.42   74.7    50    1.2    37     2.3   847.0    0.00 
 210    8:50   0.41   74.4    50    1.1    14     2.7   847.1    0.00 
 210    9:00   0.46   74.1    52    1.9   332     4.5   847.2    0.00 
 210    9:10   0.67   74.9    51    2.1    47     5.0   847.1    0.00 
 210    9:20   0.88   76.2    48    2.4    45     5.3   847.2    0.00 
 210    9:30   0.80   77.2    46    2.7     3     5.0   847.3    0.00 
 210    9:40   0.27   74.8    49    3.5    53     6.4   847.3    0.00 
 210    9:50   0.15   74.9    47    1.2    24     3.4   847.2    0.00 
 210   10:00   0.19   74.2    52    1.9    34     4.3   847.2    0.00 
 210   10:10   0.30   71.6    61    5.4    93     8.0   847.0    0.01 
 210   10:20   0.39   71.7    65    3.3    38     5.0   846.9    0.00 
 210   10:30   0.26   72.1    64    3.1    46     5.7   846.7    0.01 
 210   10:40   0.23   70.7    71    3.8    79     5.3   846.6    0.00 
 210   10:50   0.27   71.2    66    3.4    96     5.6   846.5    0.00 
 210   11:00   0.74   72.5    63    3.8    77     8.5   846.4    0.00 
 210   11:10   1.09   75.3    57    6.8    94    11.2   846.4    0.00 
 210   11:20   0.47   74.9    52    4.0    79    11.8   846.4    0.00 
 210   11:30   0.16   73.4    57    5.7    10     9.9   846.6    0.00 
 210   11:40   0.10   70.7    63    5.1    11    11.0   846.8    0.02 
 210   11:50   0.14   68.5    70    6.0   354     8.3   846.8    0.06 
 210   12:00   0.46   67.8    78    3.6    12     6.6   846.8    0.01 
 210   12:10   0.84   69.1    77    4.4    25     6.8   846.8    0.00 
 210   12:20   1.32   70.9    70    4.1    18     6.4   846.8    0.00 
 210   12:30   1.01   71.3    70    6.2   330     9.6   846.8    0.00 
 210   12:40   0.62   70.2    75    4.4   322     7.6   846.8    0.00 
 210   12:50   0.65   71.0    71    4.5   310     7.2   846.7    0.00 
 210   13:00   0.34   70.3    68    4.5   316     6.4   846.5    0.00 
 210   13:10   0.31   71.2    66    2.2   360     4.5   846.3    0.00 
 210   13:20   0.30   71.9    62    1.4    56     3.6   846.2    0.00 
 210   13:30   0.49   72.5    60    1.6   111     3.4   846.1    0.00 
 210   13:40   0.83   74.4    58    1.4    34     4.1   845.9    0.00 
 210   13:50   0.58   74.9    56    1.6   128     5.3   845.9    0.00 

Return to Snake Valley graphs page.


Western Regional Climate Center,wrcc@dri.edu